Time;durP1;ratioP1;P1;durP2;ratioP2;P2;SDS_P1;SDS_P2;PMS_P1;PMS_P2;Temp;Humidity;BMP_temperature;BMP_pressure;BME280_temperature;BME280_humidity;BME280_pressure;Samples;Min_cycle;Max_cycle;Signal;HPM_P1;HPM_P2
2019/09/28 00:02:07;;;;;;;5.2;2.6;;;;;;;;;;;;;
2019/09/28 00:04:30;;;;;;;6.2;2.6;;;;;;;;;;;;;
2019/09/28 00:06:54;;;;;;;5.4;2.9;;;;;;;;;;;;;
2019/09/28 00:09:24;;;;;;;6.6;3.1;;;;;;;;;;;;;
2019/09/28 00:11:44;;;;;;;3.8;2.8;;;;;;;;;;;;;
2019/09/28 00:14:10;;;;;;;5.9;2.8;;;;;;;;;;;;;
2019/09/28 00:17:21;;;;;;;5.7;2.9;;;;;;;;;;;;;
2019/09/28 00:22:08;;;;;;;6.6;3.2;;;;;;;;;;;;;
2019/09/28 00:24:32;;;;;;;7.4;3.2;;;;;;;;;;;;;
2019/09/28 00:26:54;;;;;;;8.5;3.5;;;;;;;;;;;;;
2019/09/28 00:29:24;;;;;;;6.3;3.5;;;;;;;;;;;;;
2019/09/28 00:31:48;;;;;;;8.4;3.3;;;;;;;;;;;;;
2019/09/28 00:34:22;;;;;;;6.3;3.1;;;;;;;;;;;;;
2019/09/28 00:39:16;;;;;;;5.2;3;;;;;;;;;;;;;
2019/09/28 00:41:42;;;;;;;6.4;2.8;;;;;;;;;;;;;
2019/09/28 00:44:05;;;;;;;5.9;2.8;;;;;;;;;;;;;
2019/09/28 00:46:29;;;;;;;5.9;3.1;;;;;;;;;;;;;
2019/09/28 00:48:59;;;;;;;5.7;2.9;;;;;;;;;;;;;
2019/09/28 00:51:23;;;;;;;5;2.9;;;;;;;;;;;;;
2019/09/28 00:53:52;;;;;;;5.1;2.8;;;;;;;;;;;;;
2019/09/28 00:56:16;;;;;;;4.9;3.2;;;;;;;;;;;;;
2019/09/28 00:58:39;;;;;;;4.8;2.9;;;;;;;;;;;;;
2019/09/28 01:01:12;;;;;;;5.5;2.8;;;;;;;;;;;;;
2019/09/28 01:03:36;;;;;;;8;3.4;;;;;;;;;;;;;
2019/09/28 01:06:21;;;;;;;5.1;3.3;;;;;;;;;;;;;
2019/09/28 01:08:42;;;;;;;6.6;3.1;;;;;;;;;;;;;
2019/09/28 01:11:14;;;;;;;5.7;3.4;;;;;;;;;;;;;
2019/09/28 01:13:40;;;;;;;5.7;3.3;;;;;;;;;;;;;
2019/09/28 01:16:10;;;;;;;6.6;3.4;;;;;;;;;;;;;
2019/09/28 01:18:32;;;;;;;6;2.9;;;;;;;;;;;;;
2019/09/28 01:20:56;;;;;;;7.3;3;;;;;;;;;;;;;
2019/09/28 01:23:21;;;;;;;7.9;3;;;;;;;;;;;;;
2019/09/28 01:25:48;;;;;;;5.5;3;;;;;;;;;;;;;
2019/09/28 01:28:13;;;;;;;5.9;3.2;;;;;;;;;;;;;
2019/09/28 01:30:37;;;;;;;6.6;3.2;;;;;;;;;;;;;
2019/09/28 01:33:06;;;;;;;5.2;3;;;;;;;;;;;;;
2019/09/28 01:37:54;;;;;;;5.6;3.2;;;;;;;;;;;;;
2019/09/28 01:40:19;;;;;;;4.8;3.1;;;;;;;;;;;;;
2019/09/28 01:42:47;;;;;;;7.2;3;;;;;;;;;;;;;
2019/09/28 01:45:24;;;;;;;6.3;3.3;;;;;;;;;;;;;
2019/09/28 01:47:48;;;;;;;7.7;3.1;;;;;;;;;;;;;
2019/09/28 01:50:16;;;;;;;7.4;3.2;;;;;;;;;;;;;
2019/09/28 01:52:44;;;;;;;6.6;3.3;;;;;;;;;;;;;
2019/09/28 01:55:07;;;;;;;8.3;3.1;;;;;;;;;;;;;
2019/09/28 01:57:34;;;;;;;4;2.8;;;;;;;;;;;;;
2019/09/28 02:00:01;;;;;;;5.7;3.4;;;;;;;;;;;;;
2019/09/28 02:02:27;;;;;;;7.2;3;;;;;;;;;;;;;
2019/09/28 02:04:51;;;;;;;6.3;3.2;;;;;;;;;;;;;
2019/09/28 02:07:20;;;;;;;4.7;3.3;;;;;;;;;;;;;
2019/09/28 02:12:27;;;;;;;6.1;3.1;;;;;;;;;;;;;
2019/09/28 02:14:51;;;;;;;6.9;2.9;;;;;;;;;;;;;
2019/09/28 02:17:17;;;;;;;6.5;3.4;;;;;;;;;;;;;
2019/09/28 02:19:48;;;;;;;6.5;3.1;;;;;;;;;;;;;
2019/09/28 02:22:08;;;;;;;6.6;3;;;;;;;;;;;;;
2019/09/28 02:24:34;;;;;;;5.6;2.9;;;;;;;;;;;;;
2019/09/28 02:27:24;;;;;;;4.4;2.8;;;;;;;;;;;;;
2019/09/28 02:29:39;;;;;;;5.1;2.9;;;;;;;;;;;;;
2019/09/28 02:32:02;;;;;;;7;3.5;;;;;;;;;;;;;
2019/09/28 02:34:24;;;;;;;6.2;3.1;;;;;;;;;;;;;
2019/09/28 02:36:52;;;;;;;4.5;2.9;;;;;;;;;;;;;
2019/09/28 02:39:16;;;;;;;5.2;3.1;;;;;;;;;;;;;
2019/09/28 02:41:42;;;;;;;4.1;2.9;;;;;;;;;;;;;
2019/09/28 02:44:09;;;;;;;5.3;3.1;;;;;;;;;;;;;
2019/09/28 02:46:36;;;;;;;4.8;3.3;;;;;;;;;;;;;
2019/09/28 02:49:26;;;;;;;4.1;3.1;;;;;;;;;;;;;
2019/09/28 02:51:39;;;;;;;3.6;2.8;;;;;;;;;;;;;
2019/09/28 02:54:01;;;;;;;6.3;3.1;;;;;;;;;;;;;
2019/09/28 02:56:35;;;;;;;4.6;3.1;;;;;;;;;;;;;
2019/09/28 02:58:58;;;;;;;6.4;3.1;;;;;;;;;;;;;
2019/09/28 03:01:22;;;;;;;8.2;3.7;;;;;;;;;;;;;
2019/09/28 03:03:48;;;;;;;9;3;;;;;;;;;;;;;
2019/09/28 03:06:16;;;;;;;5.9;2.9;;;;;;;;;;;;;
2019/09/28 03:08:42;;;;;;;4.4;2.9;;;;;;;;;;;;;
2019/09/28 03:11:12;;;;;;;4.7;2.6;;;;;;;;;;;;;
2019/09/28 03:13:35;;;;;;;4.2;2.9;;;;;;;;;;;;;
2019/09/28 03:16:06;;;;;;;4.6;2.7;;;;;;;;;;;;;
2019/09/28 03:18:30;;;;;;;5.6;3;;;;;;;;;;;;;
2019/09/28 03:20:52;;;;;;;6.2;2.6;;;;;;;;;;;;;
2019/09/28 03:23:18;;;;;;;4.6;2.7;;;;;;;;;;;;;
2019/09/28 03:25:48;;;;;;;5.1;2.7;;;;;;;;;;;;;
2019/09/28 03:28:11;;;;;;;5.5;2.5;;;;;;;;;;;;;
2019/09/28 03:30:36;;;;;;;5.5;2.8;;;;;;;;;;;;;
2019/09/28 03:33:00;;;;;;;6.7;2.6;;;;;;;;;;;;;
2019/09/28 03:35:28;;;;;;;4.7;2.8;;;;;;;;;;;;;
2019/09/28 03:37:55;;;;;;;5.4;2.7;;;;;;;;;;;;;
2019/09/28 03:40:26;;;;;;;5;2.6;;;;;;;;;;;;;
2019/09/28 03:42:50;;;;;;;5.4;2.9;;;;;;;;;;;;;
2019/09/28 03:45:16;;;;;;;4.6;2.5;;;;;;;;;;;;;
2019/09/28 03:50:26;;;;;;;6.7;2.1;;;;;;;;;;;;;
2019/09/28 03:52:52;;;;;;;4.5;2;;;;;;;;;;;;;
2019/09/28 03:55:17;;;;;;;8;2.2;;;;;;;;;;;;;
2019/09/28 03:57:44;;;;;;;5.8;2.1;;;;;;;;;;;;;
2019/09/28 04:02:30;;;;;;;6.1;1.9;;;;;;;15.95;86.34668;939.1936;;;;
2019/09/28 04:05:46;;;;;;;2.6;1.3;;;;;;;15.94;85.77832;939.1792;;;;
2019/09/28 04:07:27;;;;;;;6.1;1.7;;;;;;;15.92;86.31738;939.177;;;;
2019/09/28 04:09:53;;;;;;;3.7;1.6;;;;;;;15.81;87.08203;939.2059;;;;
2019/09/28 04:12:23;;;;;;;4.3;1.7;;;;;;;15.76;87.15234;939.1911;;;;
2019/09/28 04:14:58;;;;;;;3.4;1.6;;;;;;;15.84;86.69434;939.2059;;;;
2019/09/28 04:17:19;;;;;;;4.6;1.8;;;;;;;15.91;86.85742;939.2519;;;;
2019/09/28 04:19:53;;;;;;;4.4;2;;;;;;;15.85;86.92773;939.2902;;;;
2019/09/28 04:22:26;;;;;;;4.1;1.4;;;;;;;15.87;87.15039;939.322;;;;
2019/09/28 04:24:57;;;;;;;3.4;1.6;;;;;;;15.29;88.22266;939.3602;;;;
2019/09/28 04:27:20;;;;;;;3.2;1.7;;;;;;;15.26;89.33887;939.3691;;;;
2019/09/28 04:29:51;;;;;;;3.4;1.7;;;;;;;15.41;88.41992;939.4146;;;;
2019/09/28 04:32:27;;;;;;;2.7;1.8;;;;;;;15.44;88.16113;939.4372;;;;
2019/09/28 04:34:56;;;;;;;3.8;1.9;;;;;;;15.47;88.15723;939.4072;;;;
2019/09/28 04:37:19;;;;;;;4.8;2.6;;;;;;;15.39;89.09961;939.4412;;;;
2019/09/28 04:39:42;;;;;;;3.8;2.2;;;;;;;15.48;88.95605;939.387;;;;
2019/09/28 04:42:14;;;;;;;4.4;2;;;;;;;15.59;87.99805;939.3801;;;;
2019/09/28 04:44:50;;;;;;;2.7;1.6;;;;;;;15.68;87.48242;939.3524;;;;
2019/09/28 04:47:22;;;;;;;3.3;1.7;;;;;;;15.71;86.93359;939.4052;;;;
2019/09/28 04:49:46;;;;;;;3.7;2.2;;;;;;;15.68;87.29785;939.5057;;;;
2019/09/28 04:52:16;;;;;;;4.8;2;;;;;;;15.77;87.61621;939.4536;;;;
2019/09/28 04:54:49;;;;;;;2.4;1.8;;;;;;;15.77;87.41992;939.4183;;;;
2019/09/28 04:57:22;;;;;;;4.2;2.1;;;;;;;15.81;86.89746;939.4227;;;;
2019/09/28 04:59:44;;;;;;;3.3;2.5;;;;;;;15.81;86.78027;939.3593;;;;
2019/09/28 05:02:10;;;;;;;4.6;2.6;;;;;;;15.79;86.83398;939.3499;;;;
2019/09/28 05:04:40;;;;;;;7.7;2.7;;;;;;;15.86;86.86035;939.3961;;;;
2019/09/28 05:07:06;;;;;;;4.8;2.1;;;;;;;15.86;87.12598;939.3777;;;;
2019/09/28 05:09:43;;;;;;;5.8;1.8;;;;;;;15.86;87.37988;939.3061;;;;
2019/09/28 05:12:17;;;;;;;4.1;1.8;;;;;;;15.86;87.37988;939.3784;;;;
2019/09/28 05:14:40;;;;;;;4.5;1.6;;;;;;;15.86;86.7793;939.3784;;;;
2019/09/28 05:17:14;;;;;;;3.1;1.5;;;;;;;15.83;86.51758;939.4598;;;;
2019/09/28 05:19:39;;;;;;;6.4;1.8;;;;;;;15.8;86.41016;939.5312;;;;
2019/09/28 05:22:11;;;;;;;2.9;1.5;;;;;;;15.84;86.42871;939.5287;;;;
2019/09/28 05:24:43;;;;;;;4.2;2.7;;;;;;;15.86;86.64063;939.4483;;;;
2019/09/28 05:27:14;;;;;;;4.1;2.6;;;;;;;15.86;86.33984;939.486;;;;
2019/09/28 05:29:45;;;;;;;6;2.4;;;;;;;15.89;86.25293;939.4399;;;;
2019/09/28 05:32:09;;;;;;;9.3;2.7;;;;;;;15.89;85.99902;939.4038;;;;
2019/09/28 05:34:33;;;;;;;4.1;2.2;;;;;;;15.9;85.81543;939.4576;;;;
2019/09/28 05:37:05;;;;;;;2.9;1.9;;;;;;;15.86;86.02832;939.3937;;;;
2019/09/28 05:39:30;;;;;;;5.6;2.1;;;;;;;15.88;86.32031;939.432;;;;
2019/09/28 05:42:02;;;;;;;3.6;1.9;;;;;;;15.9;86.37012;939.3741;;;;
2019/09/28 05:44:34;;;;;;;5.6;1.8;;;;;;;15.8;86.76855;939.4067;;;;
2019/09/28 05:46:58;;;;;;;3.3;1.7;;;;;;;15.64;87.24414;939.3583;;;;
2019/09/28 05:49:31;;;;;;;3.9;1.5;;;;;;;15.56;87.62109;939.3904;;;;
2019/09/28 05:52:03;;;;;;;3.5;1.5;;;;;;;15.64;86.83887;939.4162;;;;
2019/09/28 05:54:28;;;;;;;2.7;1.4;;;;;;;15.66;86.84375;939.3148;;;;
2019/09/28 05:56:55;;;;;;;3.9;1.6;;;;;;;15.72;86.60059;939.401;;;;
2019/09/28 05:59:20;;;;;;;4.5;1.9;;;;;;;15.77;86.27734;939.3861;;;;
2019/09/28 06:01:45;;;;;;;2.6;1.8;;;;;;;15.82;86.15918;939.345;;;;
2019/09/28 06:04:16;;;;;;;4.9;2.2;;;;;;;15.87;86.13184;939.4595;;;;
2019/09/28 06:07:14;;;;;;;3.3;1.9;;;;;;;15.83;86.35742;939.4333;;;;
2019/09/28 06:09:45;;;;;;;4.9;1.6;;;;;;;15.88;86.43555;939.2834;;;;
2019/09/28 06:12:15;;;;;;;3.7;1.6;;;;;;;16.04;86.09766;939.3938;;;;
2019/09/28 06:14:48;;;;;;;2.5;1.6;;;;;;;16.06;85.62793;939.4459;;;;
2019/09/28 06:17:11;;;;;;;3.4;1.7;;;;;;;16.09;85.56543;939.3885;;;;
2019/09/28 06:19:35;;;;;;;4.7;1.9;;;;;;;16.24;85.23438;939.4339;;;;
2019/09/28 06:22:04;;;;;;;3.9;1.9;;;;;;;;;;;;;
2019/09/28 06:24:27;;;;;;;3;1.6;;;;;;;;;;;;;
2019/09/28 06:27:13;;;;;;;3;1.7;;;;;;;;;;;;;
2019/09/28 06:29:36;;;;;;;3.3;1.6;;;;;;;;;;;;;
2019/09/28 06:32:15;;;;;;;3.6;1.4;;;;;;;;;;;;;
2019/09/28 06:34:38;;;;;;;3.5;1.2;;;;;;;;;;;;;
2019/09/28 06:37:03;;;;;;;3.5;1.2;;;;;;;;;;;;;
2019/09/28 06:39:29;;;;;;;2.4;1.2;;;;;;;;;;;;;
2019/09/28 06:42:02;;;;;;;2.6;0.8;;;;;;;;;;;;;
2019/09/28 06:44:22;;;;;;;3.3;1.1;;;;;;;;;;;;;
2019/09/28 06:47:17;;;;;;;1.8;0.9;;;;;;;;;;;;;
2019/09/28 06:49:40;;;;;;;2.2;1.1;;;;;;;;;;;;;
2019/09/28 06:52:00;;;;;;;2.7;0.9;;;;;;;;;;;;;
2019/09/28 06:54:25;;;;;;;3.8;0.9;;;;;;;;;;;;;
2019/09/28 06:56:54;;;;;;;1.2;0.7;;;;;;;;;;;;;
2019/09/28 06:59:16;;;;;;;6.1;1.3;;;;;;;;;;;;;
2019/09/28 07:01:43;;;;;;;2.5;0.9;;;;;;;;;;;;;
2019/09/28 07:04:08;;;;;;;5.5;1;;;;;;;;;;;;;
2019/09/28 07:06:36;;;;;;;3.2;1;;;;;;;;;;;;;
2019/09/28 07:09:10;;;;;;;3.7;0.9;;;;;;;;;;;;;
2019/09/28 07:11:34;;;;;;;2.4;1;;;;;;;;;;;;;
2019/09/28 07:13:59;;;;;;;4.7;1.1;;;;;;;;;;;;;
2019/09/28 07:16:25;;;;;;;5.1;1;;;;;;;;;;;;;
2019/09/28 07:18:50;;;;;;;7.3;1.5;;;;;;;;;;;;;
2019/09/28 07:21:15;;;;;;;3.7;1.3;;;;;;;;;;;;;
2019/09/28 07:23:44;;;;;;;3.1;1.1;;;;;;;;;;;;;
2019/09/28 07:26:12;;;;;;;3;0.9;;;;;;;;;;;;;
2019/09/28 07:28:32;;;;;;;4.3;1;;;;;;;;;;;;;
2019/09/28 07:31:11;;;;;;;3.6;1.1;;;;;;;;;;;;;
2019/09/28 07:33:29;;;;;;;1.9;0.8;;;;;;;;;;;;;
2019/09/28 07:36:02;;;;;;;2.4;0.9;;;;;;;;;;;;;
2019/09/28 07:38:27;;;;;;;3;0.9;;;;;;;;;;;;;
2019/09/28 07:40:53;;;;;;;2.3;1;;;;;;;;;;;;;
2019/09/28 07:43:18;;;;;;;4.1;1.2;;;;;;;;;;;;;
2019/09/28 07:45:42;;;;;;;4.7;1.1;;;;;;;;;;;;;
2019/09/28 07:48:07;;;;;;;2.9;1;;;;;;;;;;;;;
2019/09/28 07:50:31;;;;;;;4;1.4;;;;;;;;;;;;;
2019/09/28 07:52:59;;;;;;;3.4;1.6;;;;;;;;;;;;;
2019/09/28 07:55:25;;;;;;;3.8;0.8;;;;;;;;;;;;;
2019/09/28 07:57:48;;;;;;;2.3;0.9;;;;;;;;;;;;;
2019/09/28 08:00:18;;;;;;;3.7;0.9;;;;;;;;;;;;;
2019/09/28 08:02:41;;;;;;;2.9;0.8;;;;;;;;;;;;;
2019/09/28 08:05:03;;;;;;;5;1.1;;;;;;;;;;;;;
2019/09/28 08:07:35;;;;;;;1.6;0.9;;;;;;;;;;;;;
2019/09/28 08:09:53;;;;;;;3.3;1;;;;;;;;;;;;;
2019/09/28 08:12:18;;;;;;;2.8;1.1;;;;;;;;;;;;;
2019/09/28 08:14:45;;;;;;;2.3;1;;;;;;;;;;;;;
2019/09/28 08:17:08;;;;;;;3.5;0.9;;;;;;;;;;;;;
2019/09/28 08:19:34;;;;;;;2.1;0.9;;;;;;;;;;;;;
2019/09/28 08:22:03;;;;;;;2.2;0.8;;;;;;;;;;;;;
2019/09/28 08:24:24;;;;;;;3.1;1;;;;;;;;;;;;;
2019/09/28 08:26:50;;;;;;;2.5;1;;;;;;;;;;;;;
2019/09/28 08:29:18;;;;;;;3.5;1;;;;;;;;;;;;;
2019/09/28 08:31:43;;;;;;;3;0.9;;;;;;;;;;;;;
2019/09/28 08:34:07;;;;;;;4.2;1.3;;;;;;;;;;;;;
2019/09/28 08:36:32;;;;;;;3.1;1.1;;;;;;;;;;;;;
2019/09/28 08:39:00;;;;;;;2.2;1;;;;;;;;;;;;;
2019/09/28 08:41:24;;;;;;;3.6;1.1;;;;;;;;;;;;;
2019/09/28 08:43:47;;;;;;;2.5;0.9;;;;;;;;;;;;;
2019/09/28 08:46:12;;;;;;;2.6;0.8;;;;;;;;;;;;;
2019/09/28 08:48:41;;;;;;;3.7;1;;;;;;;;;;;;;
2019/09/28 08:51:07;;;;;;;3.1;1;;;;;;;;;;;;;
2019/09/28 08:53:28;;;;;;;2.8;1;;;;;;;;;;;;;
2019/09/28 08:55:52;;;;;;;4.5;1.7;;;;;;;;;;;;;
2019/09/28 08:58:22;;;;;;;3.7;1.2;;;;;;;;;;;;;
2019/09/28 09:00:44;;;;;;;2.3;1.4;;;;;;;;;;;;;
2019/09/28 09:03:09;;;;;;;3.5;1.2;;;;;;;;;;;;;
2019/09/28 09:05:33;;;;;;;2.5;1.4;;;;;;;;;;;;;
2019/09/28 09:08:02;;;;;;;4.6;1.6;;;;;;;;;;;;;
2019/09/28 09:10:27;;;;;;;2.2;1.4;;;;;;;;;;;;;
2019/09/28 09:12:49;;;;;;;3.6;1.6;;;;;;;;;;;;;
2019/09/28 09:15:15;;;;;;;5.3;1.6;;;;;;;;;;;;;
2019/09/28 09:18:37;;;;;;;4.8;1.4;;;;;;;;;;;;;
2019/09/28 09:21:10;;;;;;;1.8;1;;;;;;;;;;;;;
2019/09/28 09:23:34;;;;;;;1.6;0.8;;;;;;;;;;;;;
2019/09/28 09:25:59;;;;;;;2.7;1.1;;;;;;;;;;;;;
2019/09/28 09:28:26;;;;;;;3.4;1.1;;;;;;;;;;;;;
2019/09/28 09:30:50;;;;;;;3.7;0.9;;;;;;;;;;;;;
2019/09/28 09:33:19;;;;;;;3.5;0.8;;;;;;;;;;;;;
2019/09/28 09:35:46;;;;;;;3.1;0.9;;;;;;;;;;;;;
2019/09/28 09:38:11;;;;;;;1.6;0.7;;;;;;;;;;;;;
2019/09/28 09:40:34;;;;;;;2.2;0.8;;;;;;;;;;;;;
2019/09/28 09:43:00;;;;;;;2;0.8;;;;;;;;;;;;;
2019/09/28 09:46:12;;;;;;;2;0.8;;;;;;;;;;;;;
2019/09/28 09:48:30;;;;;;;2.1;0.7;;;;;;;;;;;;;
2019/09/28 09:50:54;;;;;;;1.8;0.7;;;;;;;;;;;;;
2019/09/28 09:53:20;;;;;;;3;0.8;;;;;;;;;;;;;
2019/09/28 09:56:11;;;;;;;1.6;0.7;;;;;;;;;;;;;
2019/09/28 09:58:28;;;;;;;1.6;0.6;;;;;;;;;;;;;
2019/09/28 10:00:56;;;;;;;2.9;0.8;;;;;;;;;;;;;
2019/09/28 10:03:20;;;;;;;2.3;0.9;;;;;;;;;;;;;
2019/09/28 10:05:43;;;;;;;2;0.9;;;;;;;;;;;;;
2019/09/28 10:08:10;;;;;;;2.2;1.1;;;;;;;;;;;;;
2019/09/28 10:13:36;;;;;;;1.9;0.9;;;;;;;;;;;;;
2019/09/28 10:16:07;;;;;;;2.3;0.9;;;;;;;;;;;;;
2019/09/28 10:18:29;;;;;;;1.2;0.7;;;;;;;;;;;;;
2019/09/28 10:21:15;;;;;;;1;0.5;;;;;;;;;;;;;
2019/09/28 10:24:13;;;;;;;2.1;0.6;;;;;;;;;;;;;
2019/09/28 10:26:25;;;;;;;4.4;0.7;;;;;;;;;;;;;
2019/09/28 10:28:54;;;;;;;2;0.7;;;;;;;;;;;;;
2019/09/28 10:31:15;;;;;;;3;0.8;;;;;;;;;;;;;
2019/09/28 10:34:13;;;;;;;2.4;0.8;;;;;;;;;;;;;
2019/09/28 10:36:33;;;;;;;1.4;0.8;;;;;;;;;;;;;
2019/09/28 10:38:57;;;;;;;2.7;0.8;;;;;;;;;;;;;
2019/09/28 10:41:23;;;;;;;2.8;0.7;;;;;;;;;;;;;
2019/09/28 10:43:50;;;;;;;1.7;0.7;;;;;;;;;;;;;
2019/09/28 10:46:17;;;;;;;1.2;0.7;;;;;;;;;;;;;
2019/09/28 10:48:40;;;;;;;2.9;0.6;;;;;;;;;;;;;
2019/09/28 10:51:11;;;;;;;1.7;0.6;;;;;;;;;;;;;
2019/09/28 10:53:33;;;;;;;1.6;0.6;;;;;;;;;;;;;
2019/09/28 10:55:58;;;;;;;2.4;0.8;;;;;;;;;;;;;
2019/09/28 10:58:23;;;;;;;2.1;0.8;;;;;;;;;;;;;
2019/09/28 11:00:52;;;;;;;2.5;0.9;;;;;;;;;;;;;
2019/09/28 11:03:14;;;;;;;1.2;0.6;;;;;;;;;;;;;
2019/09/28 11:05:43;;;;;;;2.4;0.9;;;;;;;;;;;;;
2019/09/28 11:08:12;;;;;;;2.3;1;;;;;;;;;;;;;
2019/09/28 11:10:33;;;;;;;3.2;1.2;;;;;;;;;;;;;
2019/09/28 11:13:11;;;;;;;3.6;0.9;;;;;;;;;;;;;
2019/09/28 11:15:23;;;;;;;1.8;0.8;;;;;;;;;;;;;
2019/09/28 11:17:50;;;;;;;2.7;0.9;;;;;;;;;;;;;
2019/09/28 11:20:17;;;;;;;3.5;0.9;;;;;;;;;;;;;
2019/09/28 11:22:42;;;;;;;1.5;0.7;;;;;;;;;;;;;
2019/09/28 11:25:09;;;;;;;2.8;1.2;;;;;;;;;;;;;
2019/09/28 11:27:36;;;;;;;2.7;0.9;;;;;;;;;;;;;
2019/09/28 11:30:01;;;;;;;2;0.8;;;;;;;;;;;;;
2019/09/28 11:32:31;;;;;;;1.8;0.6;;;;;;;;;;;;;
2019/09/28 11:35:02;;;;;;;2;0.7;;;;;;;;;;;;;
2019/09/28 11:37:27;;;;;;;0.9;0.7;;;;;;;;;;;;;
2019/09/28 11:40:11;;;;;;;2;0.6;;;;;;;;;;;;;
2019/09/28 11:42:19;;;;;;;1.8;0.7;;;;;;;;;;;;;
2019/09/28 11:44:42;;;;;;;2.8;0.6;;;;;;;;;;;;;
2019/09/28 11:47:08;;;;;;;2.3;0.6;;;;;;;;;;;;;
2019/09/28 11:49:40;;;;;;;1.5;0.6;;;;;;;;;;;;;
2019/09/28 11:52:05;;;;;;;3.3;0.9;;;;;;;;;;;;;
2019/09/28 11:56:57;;;;;;;1.7;0.9;;;;;;;;;;;;;
2019/09/28 12:00:12;;;;;;;1.8;0.6;;;;;;;;;;;;;
2019/09/28 12:04:47;;;;;;;1.1;0.6;;;;;;;;;;;;;
2019/09/28 12:07:11;;;;;;;1.3;0.8;;;;;;;;;;;;;
2019/09/28 12:10:12;;;;;;;2.2;0.7;;;;;;;;;;;;;
2019/09/28 12:12:36;;;;;;;2.3;0.7;;;;;;;;;;;;;
2019/09/28 12:15:02;;;;;;;2.2;0.7;;;;;;;;;;;;;
2019/09/28 12:17:30;;;;;;;3.2;1;;;;;;;;;;;;;
2019/09/28 12:20:00;;;;;;;2;0.8;;;;;;;;;;;;;
2019/09/28 12:22:27;;;;;;;2.2;0.9;;;;;;;;;;;;;
2019/09/28 12:24:50;;;;;;;2.2;0.8;;;;;;;;;;;;;
2019/09/28 12:27:15;;;;;;;2.8;0.8;;;;;;;;;;;;;
2019/09/28 12:29:40;;;;;;;3.6;0.9;;;;;;;;;;;;;
2019/09/28 12:32:09;;;;;;;3.7;0.8;;;;;;;;;;;;;
2019/09/28 12:34:30;;;;;;;3;0.9;;;;;;;;;;;;;
2019/09/28 12:36:56;;;;;;;4.9;0.9;;;;;;;;;;;;;
2019/09/28 12:39:26;;;;;;;3.5;0.9;;;;;;;;;;;;;
2019/09/28 12:44:20;;;;;;;3.5;1;;;;;;;;;;;;;
2019/09/28 12:46:42;;;;;;;2.6;0.9;;;;;;;;;;;;;
2019/09/28 12:49:06;;;;;;;3.6;1.1;;;;;;;;;;;;;
2019/09/28 12:54:00;;;;;;;3.9;1;;;;;;;;;;;;;
2019/09/28 12:56:26;;;;;;;2.8;0.9;;;;;;;;;;;;;
2019/09/28 12:58:49;;;;;;;4;1.2;;;;;;;;;;;;;
2019/09/28 13:01:21;;;;;;;3.6;0.9;;;;;;;;;;;;;
2019/09/28 13:03:43;;;;;;;4.3;1.4;;;;;;;;;;;;;
2019/09/28 13:06:08;;;;;;;2.2;0.9;;;;;;;;;;;;;
2019/09/28 13:09:17;;;;;;;3.4;1.2;;;;;;;;;;;;;
2019/09/28 13:11:34;;;;;;;2.6;0.9;;;;;;;;;;;;;
2019/09/28 13:14:15;;;;;;;3.4;0.8;;;;;;;;;;;;;
2019/09/28 13:16:36;;;;;;;2.5;1;;;;;;;;;;;;;
2019/09/28 13:19:00;;;;;;;3.4;0.8;;;;;;;;;;;;;
2019/09/28 13:21:29;;;;;;;3;1;;;;;;;;;;;;;
2019/09/28 13:23:56;;;;;;;2.9;0.9;;;;;;;;;;;;;
2019/09/28 13:26:17;;;;;;;3.2;1.2;;;;;;;;;;;;;
2019/09/28 13:28:43;;;;;;;1.8;0.9;;;;;;;;;;;;;
2019/09/28 13:31:06;;;;;;;2.7;0.9;;;;;;;;;;;;;
2019/09/28 13:33:35;;;;;;;2.3;1;;;;;;;;;;;;;
2019/09/28 13:36:13;;;;;;;3.2;0.9;;;;;;;;;;;;;
2019/09/28 13:38:43;;;;;;;4.1;1;;;;;;;;;;;;;
2019/09/28 13:41:05;;;;;;;2.5;1;;;;;;;;;;;;;
2019/09/28 13:43:28;;;;;;;4.8;1;;;;;;;;;;;;;
2019/09/28 13:45:53;;;;;;;3.7;1.1;;;;;;;;;;;;;
2019/09/28 13:48:23;;;;;;;3.7;1.1;;;;;;;;;;;;;
2019/09/28 13:50:49;;;;;;;3.6;1.2;;;;;;;;;;;;;
2019/09/28 13:53:20;;;;;;;2.6;1;;;;;;;;;;;;;
2019/09/28 13:55:48;;;;;;;3.1;1.1;;;;;;;;;;;;;
2019/09/28 13:58:13;;;;;;;2;1;;;;;;;;;;;;;
2019/09/28 14:00:37;;;;;;;4.2;1;;;;;;;;;;;;;
2019/09/28 14:02:59;;;;;;;3.1;1.1;;;;;;;;;;;;;
2019/09/28 14:05:23;;;;;;;3;1.1;;;;;;;;;;;;;
2019/09/28 14:07:49;;;;;;;3;1;;;;;;;;;;;;;
2019/09/28 14:10:15;;;;;;;3.2;1;;;;;;;;;;;;;
2019/09/28 14:12:39;;;;;;;4.1;1.1;;;;;;;;;;;;;
2019/09/28 14:15:04;;;;;;;3.6;1.1;;;;;;;;;;;;;
2019/09/28 14:17:34;;;;;;;4.1;1.1;;;;;;;;;;;;;
2019/09/28 14:19:57;;;;;;;4.5;1.3;;;;;;;;;;;;;
2019/09/28 14:22:21;;;;;;;1.9;0.9;;;;;;;;;;;;;
2019/09/28 14:24:51;;;;;;;3.6;1;;;;;;;;;;;;;
2019/09/28 14:27:14;;;;;;;2.5;0.9;;;;;;;;;;;;;
2019/09/28 14:29:38;;;;;;;5.8;1.4;;;;;;;;;;;;;
2019/09/28 14:32:02;;;;;;;6.1;2.5;;;;;;;;;;;;;
2019/09/28 14:34:33;;;;;;;5.2;1.5;;;;;;;;;;;;;
2019/09/28 14:36:55;;;;;;;3.4;1.5;;;;;;;;;;;;;
2019/09/28 14:39:20;;;;;;;3.4;1.7;;;;;;;;;;;;;
2019/09/28 14:41:52;;;;;;;5.1;1.6;;;;;;;;;;;;;
2019/09/28 14:44:15;;;;;;;3.8;1.3;;;;;;;;;;;;;
2019/09/28 14:46:40;;;;;;;4.5;2.1;;;;;;;;;;;;;
2019/09/28 14:49:05;;;;;;;6;1.9;;;;;;;;;;;;;
2019/09/28 14:51:33;;;;;;;4.3;1.6;;;;;;;;;;;;;
2019/09/28 14:53:55;;;;;;;3.9;1.5;;;;;;;;;;;;;
2019/09/28 14:56:22;;;;;;;5.3;1.5;;;;;;;;;;;;;
2019/09/28 14:58:52;;;;;;;3.6;1.1;;;;;;;;;;;;;
2019/09/28 15:01:18;;;;;;;2;1;;;;;;;;;;;;;
2019/09/28 15:03:47;;;;;;;2.6;1.2;;;;;;;;;;;;;
2019/09/28 15:08:42;;;;;;;3.8;1.2;;;;;;;;;;;;;
2019/09/28 15:11:16;;;;;;;5;1.3;;;;;;;;;;;;;
2019/09/28 15:13:42;;;;;;;3.5;1.2;;;;;;;;;;;;;
2019/09/28 15:16:13;;;;;;;5.3;2.3;;;;;;;;;;;;;
2019/09/28 15:18:35;;;;;;;5.5;2.5;;;;;;;;;;;;;
2019/09/28 15:21:01;;;;;;;7.4;2.7;;;;;;;;;;;;;
2019/09/28 15:24:16;;;;;;;3.8;2.2;;;;;;;;;;;;;
2019/09/28 15:26:26;;;;;;;4.5;1.6;;;;;;;;;;;;;
2019/09/28 15:28:54;;;;;;;6.9;1.6;;;;;;;;;;;;;
2019/09/28 15:31:19;;;;;;;4.5;1.5;;;;;;;;;;;;;
2019/09/28 15:34:18;;;;;;;3.3;1.2;;;;;;;;;;;;;
2019/09/28 15:36:47;;;;;;;4.7;1.5;;;;;;;;;;;;;
2019/09/28 15:39:15;;;;;;;4.6;1.6;;;;;;;;;;;;;
2019/09/28 15:41:37;;;;;;;11.8;5.4;;;;;;;;;;;;;
2019/09/28 15:44:05;;;;;;;22.6;11.4;;;;;;;;;;;;;
2019/09/28 15:46:33;;;;;;;12.5;5.3;;;;;;;;;;;;;
2019/09/28 15:48:56;;;;;;;4.3;1.5;;;;;;;;;;;;;
2019/09/28 15:51:24;;;;;;;6;1.2;;;;;;;;;;;;;
2019/09/28 15:53:51;;;;;;;3.9;1.4;;;;;;;;;;;;;
2019/09/28 15:56:15;;;;;;;4;1.3;;;;;;;;;;;;;
2019/09/28 15:58:40;;;;;;;4.6;1.4;;;;;;;;;;;;;
2019/09/28 16:01:05;;;;;;;4.2;1.4;;;;;;;;;;;;;
2019/09/28 16:03:33;;;;;;;5.9;1.6;;;;;;;;;;;;;
2019/09/28 16:05:55;;;;;;;7.8;2.6;;;;;;;;;;;;;
2019/09/28 16:08:22;;;;;;;8.1;3.8;;;;;;;;;;;;;
2019/09/28 16:10:47;;;;;;;4.2;2.2;;;;;;;;;;;;;
2019/09/28 16:13:15;;;;;;;5.1;2.1;;;;;;;;;;;;;
2019/09/28 16:15:39;;;;;;;5.5;2.4;;;;;;;;;;;;;
2019/09/28 16:18:08;;;;;;;9.4;3.9;;;;;;;;;;;;;
2019/09/28 16:20:34;;;;;;;12.8;7.2;;;;;;;;;;;;;
2019/09/28 16:23:16;;;;;;;8.8;4.3;;;;;;;;;;;;;
2019/09/28 16:25:27;;;;;;;9.2;3.4;;;;;;;;;;;;;
2019/09/28 16:27:52;;;;;;;13.4;4.3;;;;;;;;;;;;;
2019/09/28 16:30:22;;;;;;;10.3;6.3;;;;;;;;;;;;;
2019/09/28 16:33:18;;;;;;;9.4;4.6;;;;;;;;;;;;;
2019/09/28 16:35:49;;;;;;;19.5;12.9;;;;;;;;;;;;;
2019/09/28 16:40:19;;;;;;;5.6;2.5;;;;;;;;;;;;;
2019/09/28 16:42:47;;;;;;;5.8;1.4;;;;;;;;;;;;;
2019/09/28 16:45:12;;;;;;;4.6;1.4;;;;;;;;;;;;;
2019/09/28 16:47:34;;;;;;;3.8;1.5;;;;;;;;;;;;;
2019/09/28 16:49:59;;;;;;;7.1;1.4;;;;;;;;;;;;;
2019/09/28 16:52:28;;;;;;;6.8;1.9;;;;;;;;;;;;;
2019/09/28 16:57:16;;;;;;;3.3;1.4;;;;;;;;;;;;;
2019/09/28 16:59:40;;;;;;;4.3;2;;;;;;;;;;;;;
2019/09/28 17:02:20;;;;;;;7.3;1.9;;;;;;;;;;;;;
2019/09/28 17:04:45;;;;;;;6.5;2.3;;;;;;;;;;;;;
2019/09/28 17:07:14;;;;;;;10.6;3.9;;;;;;;;;;;;;
2019/09/28 17:09:38;;;;;;;9.2;4.8;;;;;;;;;;;;;
2019/09/28 17:12:04;;;;;;;7.4;4.4;;;;;;;;;;;;;
2019/09/28 17:14:34;;;;;;;8.7;4.8;;;;;;;;;;;;;
2019/09/28 17:16:56;;;;;;;12.5;6.4;;;;;;;;;;;;;
2019/09/28 17:19:20;;;;;;;14.3;7.1;;;;;;;;;;;;;
2019/09/28 17:21:44;;;;;;;21.4;11.5;;;;;;;;;;;;;
2019/09/28 17:24:12;;;;;;;13.2;8.4;;;;;;;;;;;;;
2019/09/28 17:26:36;;;;;;;6.9;3.1;;;;;;;;;;;;;
2019/09/28 17:29:01;;;;;;;6.1;1.9;;;;;;;;;;;;;
2019/09/28 17:31:24;;;;;;;6.2;2.6;;;;;;;;;;;;;
2019/09/28 17:33:57;;;;;;;8.5;3.5;;;;;;;;;;;;;
2019/09/28 17:36:18;;;;;;;10.3;5.4;;;;;;;;;;;;;
2019/09/28 17:38:43;;;;;;;10.9;5.5;;;;;;;;;;;;;
2019/09/28 17:41:16;;;;;;;8.8;6.8;;;;;;;;;;;;;
2019/09/28 17:43:40;;;;;;;12.6;5.6;;;;;;;;;;;;;
2019/09/28 17:46:17;;;;;;;7.9;5.5;;;;;;;;;;;;;
2019/09/28 17:48:34;;;;;;;9.1;4.7;;;;;;;;;;;;;
2019/09/28 17:51:04;;;;;;;7.3;3.8;;;;;;;;;;;;;
2019/09/28 17:53:31;;;;;;;7.7;3.2;;;;;;;;;;;;;
2019/09/28 17:58:26;;;;;;;8.7;4.6;;;;;;;;;;;;;
2019/09/28 18:00:53;;;;;;;11.8;6.2;;;;;;;;;;;;;
2019/09/28 18:03:20;;;;;;;9;3.8;;;;;;;;;;;;;
2019/09/28 18:05:41;;;;;;;7;3.3;;;;;;;;;;;;;
2019/09/28 18:08:08;;;;;;;4;2;;;;;;;;;;;;;
2019/09/28 18:10:35;;;;;;;4.2;2;;;;;;;;;;;;;
2019/09/28 18:12:59;;;;;;;8.3;3.4;;;;;;;;;;;;;
2019/09/28 18:15:24;;;;;;;6.6;3.4;;;;;;;;;;;;;
2019/09/28 18:17:48;;;;;;;6.7;2.9;;;;;;;;;;;;;
2019/09/28 18:23:14;;;;;;;8.4;3.1;;;;;;;;;;;;;
2019/09/28 18:25:34;;;;;;;8.6;2.8;;;;;;;;;;;;;
2019/09/28 18:28:03;;;;;;;9.5;5;;;;;;;;;;;;;
2019/09/28 18:30:30;;;;;;;7.9;4.9;;;;;;;;;;;;;
2019/09/28 18:32:53;;;;;;;9;4.8;;;;;;;;;;;;;
2019/09/28 18:35:17;;;;;;;9.3;4.4;;;;;;;;;;;;;
2019/09/28 18:37:50;;;;;;;8.2;4.5;;;;;;;;;;;;;
2019/09/28 18:40:16;;;;;;;8.9;4.8;;;;;;;;;;;;;
2019/09/28 18:45:13;;;;;;;9.3;3;;;;;;;;;;;;;
2019/09/28 18:47:39;;;;;;;6.9;2.5;;;;;;;;;;;;;
2019/09/28 18:50:01;;;;;;;6.9;2.5;;;;;;;;;;;;;
2019/09/28 18:52:26;;;;;;;15.5;7.6;;;;;;;;;;;;;
2019/09/28 18:54:59;;;;;;;16.9;9.5;;;;;;;;;;;;;
2019/09/28 18:57:18;;;;;;;9.9;5.1;;;;;;;;;;;;;
2019/09/28 18:59:43;;;;;;;7.9;3;;;;;;;;;;;;;
2019/09/28 19:02:12;;;;;;;6.4;3;;;;;;;;;;;;;
2019/09/28 19:04:35;;;;;;;8;2.9;;;;;;;;;;;;;
2019/09/28 19:07:00;;;;;;;5.6;2.5;;;;;;;;;;;;;
2019/09/28 19:09:25;;;;;;;6.1;3.1;;;;;;;;;;;;;
2019/09/28 19:11:55;;;;;;;7.3;2.9;;;;;;;;;;;;;
2019/09/28 19:16:42;;;;;;;5.9;2.6;;;;;;;;;;;;;
2019/09/28 19:19:06;;;;;;;5;2.7;;;;;;;;;;;;;
2019/09/28 19:21:36;;;;;;;5.8;2.9;;;;;;;;;;;;;
2019/09/28 19:24:01;;;;;;;8.5;2.9;;;;;;;;;;;;;
2019/09/28 19:26:25;;;;;;;7.3;2.3;;;;;;;;;;;;;
2019/09/28 19:28:52;;;;;;;5.8;2.4;;;;;;;;;;;;;
2019/09/28 19:31:16;;;;;;;6.5;3.2;;;;;;;;;;;;;
2019/09/28 19:33:40;;;;;;;7.5;3.5;;;;;;;;;;;;;
2019/09/28 19:36:05;;;;;;;7.3;3.6;;;;;;;;;;;;;
2019/09/28 19:38:33;;;;;;;5.6;3.3;;;;;;;;;;;;;
2019/09/28 19:41:00;;;;;;;8.9;3.6;;;;;;;;;;;;;
2019/09/28 19:43:25;;;;;;;6.6;2.9;;;;;;;;;;;;;
2019/09/28 19:45:55;;;;;;;7.5;3.3;;;;;;;;;;;;;
2019/09/28 19:48:18;;;;;;;9.4;4;;;;;;;;;;;;;
2019/09/28 19:53:33;;;;;;;7.3;3.4;;;;;;;;;;;;;
2019/09/28 19:55:56;;;;;;;10.2;7.4;;;;;;;;;;;;;
2019/09/28 19:58:21;;;;;;;8;4.6;;;;;;;;;;;;;
2019/09/28 20:00:49;;;;;;;11;4.6;;;;;;;;;;;;;
2019/09/28 20:03:15;;;;;;;10.5;3.8;;;;;;;;;;;;;
2019/09/28 20:05:39;;;;;;;6.7;3.8;;;;;;;;;;;;;
2019/09/28 20:08:01;;;;;;;6.9;3.1;;;;;;;;;;;;;
2019/09/28 20:10:30;;;;;;;7.3;2.4;;;;;;;;;;;;;
2019/09/28 20:12:54;;;;;;;6.9;2.4;;;;;;;;;;;;;
2019/09/28 20:15:17;;;;;;;7.2;2.6;;;;;;;;;;;;;
2019/09/28 20:17:43;;;;;;;6.7;2.8;;;;;;;;;;;;;
2019/09/28 20:20:10;;;;;;;9.2;3.6;;;;;;;;;;;;;
2019/09/28 20:22:37;;;;;;;10.2;4.2;;;;;;;;;;;;;
2019/09/28 20:24:58;;;;;;;9.9;3.8;;;;;;;;;;;;;
2019/09/28 20:27:23;;;;;;;8.9;3.6;;;;;;;;;;;;;
2019/09/28 20:29:47;;;;;;;7.9;3.9;;;;;;;;;;;;;
2019/09/28 20:32:15;;;;;;;9.6;4.4;;;;;;;;;;;;;
2019/09/28 20:34:39;;;;;;;9.5;3.8;;;;;;;;;;;;;
2019/09/28 20:37:05;;;;;;;8.9;4.4;;;;;;;;;;;;;
2019/09/28 20:39:34;;;;;;;11.2;4.6;;;;;;;;;;;;;